sensor_id;sensor_type;location;lat;lon;timestamp;pressure;altitude;pressure_sealevel;temperature;humidity
64713;BME280;51140;45.340;5.980;2023-03-04T10:05:03;98203.50;;;7.05;100.00
64713;BME280;51140;45.340;5.980;2023-03-04T10:07:36;98201.94;;;7.01;100.00
64713;BME280;51140;45.340;5.980;2023-03-04T10:10:21;98211.00;;;7.12;100.00
64713;BME280;51140;45.340;5.980;2023-03-04T10:12:50;98196.88;;;7.21;100.00
64713;BME280;51140;45.340;5.980;2023-03-04T10:15:39;98203.75;;;7.22;100.00
64713;BME280;51140;45.340;5.980;2023-03-04T10:18:23;98201.31;;;7.17;100.00
64713;BME280;51140;45.340;5.980;2023-03-04T10:20:52;98210.28;;;7.32;100.00
64713;BME280;51140;45.340;5.980;2023-03-04T10:23:21;98206.47;;;7.41;100.00
64713;BME280;51140;45.340;5.980;2023-03-04T10:25:49;98202.94;;;7.43;100.00
64713;BME280;51140;45.340;5.980;2023-03-04T10:28:22;98207.03;;;7.49;100.00
64713;BME280;51140;45.340;5.980;2023-03-04T10:31:01;98211.97;;;7.55;100.00
64713;BME280;51140;45.340;5.980;2023-03-04T10:33:32;98198.69;;;7.41;100.00
64713;BME280;51140;45.340;5.980;2023-03-04T10:38:33;98199.72;;;7.59;100.00
64713;BME280;51140;45.340;5.980;2023-03-04T10:40:59;98203.59;;;7.48;100.00
64713;BME280;51140;45.340;5.980;2023-03-04T10:43:25;98197.06;;;7.62;100.00
64713;BME280;51140;45.340;5.980;2023-03-04T10:45:56;98189.78;;;7.92;100.00
64713;BME280;51140;45.340;5.980;2023-03-04T10:48:26;98186.59;;;8.07;100.00
64713;BME280;51140;45.340;5.980;2023-03-04T10:50:53;98178.09;;;8.03;100.00
64713;BME280;51140;45.340;5.980;2023-03-04T10:55:53;98195.88;;;8.33;100.00
64713;BME280;51140;45.340;5.980;2023-03-04T10:58:19;98205.66;;;8.48;100.00
64713;BME280;51140;45.340;5.980;2023-03-04T11:00:59;98206.81;;;8.61;100.00
64713;BME280;51140;45.340;5.980;2023-03-04T11:06:11;98210.06;;;8.66;100.00
64713;BME280;51140;45.340;5.980;2023-03-04T11:08:38;98215.19;;;8.68;100.00
64713;BME280;51140;45.340;5.980;2023-03-04T11:11:21;98230.13;;;8.63;100.00
64713;BME280;51140;45.340;5.980;2023-03-04T11:13:54;98235.78;;;8.72;100.00
64713;BME280;51140;45.340;5.980;2023-03-04T11:16:29;98227.84;;;8.75;100.00
64713;BME280;51140;45.340;5.980;2023-03-04T11:18:59;98227.72;;;8.78;100.00
64713;BME280;51140;45.340;5.980;2023-03-04T11:21:30;98226.16;;;8.74;100.00
64713;BME280;51140;45.340;5.980;2023-03-04T11:29:54;98239.72;;;9.01;100.00
64713;BME280;51140;45.340;5.980;2023-03-04T11:32:23;98227.78;;;9.16;100.00
64713;BME280;51140;45.340;5.980;2023-03-04T11:37:34;98234.28;;;9.26;100.00
64713;BME280;51140;45.340;5.980;2023-03-04T11:40:22;98242.88;;;9.08;100.00
64713;BME280;51140;45.340;5.980;2023-03-04T11:42:53;98254.81;;;9.12;100.00
64713;BME280;51140;45.340;5.980;2023-03-04T11:48:27;98250.88;;;9.42;100.00
64713;BME280;51140;45.340;5.980;2023-03-04T11:51:12;98256.84;;;9.45;100.00
64713;BME280;51140;45.340;5.980;2023-03-04T11:54:16;98236.41;;;9.37;100.00
64713;BME280;51140;45.340;5.980;2023-03-04T11:56:49;98266.25;;;9.28;100.00
64713;BME280;51140;45.340;5.980;2023-03-04T12:02:23;98266.78;;;9.16;100.00
64713;BME280;51140;45.340;5.980;2023-03-04T12:05:16;98272.75;;;9.18;100.00
64713;BME280;51140;45.340;5.980;2023-03-04T12:10:41;98230.25;;;9.19;100.00
64713;BME280;51140;45.340;5.980;2023-03-04T12:13:24;98257.78;;;9.04;100.00
64713;BME280;51140;45.340;5.980;2023-03-04T12:19:05;98255.56;;;8.95;100.00
64713;BME280;51140;45.340;5.980;2023-03-04T12:24:27;98260.72;;;9.16;100.00
64713;BME280;51140;45.340;5.980;2023-03-04T12:29:55;98264.56;;;9.27;100.00
64713;BME280;51140;45.340;5.980;2023-03-04T12:37:56;98276.00;;;9.62;100.00
64713;BME280;51140;45.340;5.980;2023-03-04T12:40:39;98289.53;;;9.50;100.00
64713;BME280;51140;45.340;5.980;2023-03-04T12:43:14;98294.16;;;9.43;100.00
64713;BME280;51140;45.340;5.980;2023-03-04T12:48:29;98291.13;;;9.34;100.00
64713;BME280;51140;45.340;5.980;2023-03-04T12:51:06;98306.59;;;9.37;100.00
64713;BME280;51140;45.340;5.980;2023-03-04T12:56:20;98295.84;;;9.45;100.00
64713;BME280;51140;45.340;5.980;2023-03-04T12:58:47;98302.25;;;9.37;100.00
64713;BME280;51140;45.340;5.980;2023-03-04T13:01:31;98305.06;;;9.52;100.00
64713;BME280;51140;45.340;5.980;2023-03-04T13:04:11;98304.00;;;9.56;100.00
64713;BME280;51140;45.340;5.980;2023-03-04T13:06:47;98305.06;;;9.52;100.00
64713;BME280;51140;45.340;5.980;2023-03-04T13:09:25;98293.00;;;9.69;100.00
64713;BME280;51140;45.340;5.980;2023-03-04T13:12:03;98275.25;;;9.96;100.00
64713;BME280;51140;45.340;5.980;2023-03-04T13:14:29;98291.00;;;10.12;100.00
64713;BME280;51140;45.340;5.980;2023-03-04T13:17:00;98310.84;;;10.15;100.00
64713;BME280;51140;45.340;5.980;2023-03-04T13:24:55;98345.88;;;10.26;100.00
64713;BME280;51140;45.340;5.980;2023-03-04T13:27:47;98344.19;;;10.25;100.00
64713;BME280;51140;45.340;5.980;2023-03-04T13:41:20;98340.06;;;10.21;100.00
64713;BME280;51140;45.340;5.980;2023-03-04T13:46:41;98343.56;;;10.20;100.00
64713;BME280;51140;45.340;5.980;2023-03-04T13:49:15;98337.97;;;10.47;100.00
64713;BME280;51140;45.340;5.980;2023-03-04T13:51:43;98320.44;;;10.67;100.00
64713;BME280;51140;45.340;5.980;2023-03-04T13:54:20;98296.22;;;11.00;100.00
64713;BME280;51140;45.340;5.980;2023-03-04T13:59:40;98333.34;;;10.88;100.00
64713;BME280;51140;45.340;5.980;2023-03-04T14:02:15;98348.50;;;11.14;100.00
64713;BME280;51140;45.340;5.980;2023-03-04T14:04:45;98338.41;;;11.25;100.00
64713;BME280;51140;45.340;5.980;2023-03-04T14:07:27;98362.94;;;11.21;100.00
64713;BME280;51140;45.340;5.980;2023-03-04T14:12:31;98362.78;;;10.90;100.00
64713;BME280;51140;45.340;5.980;2023-03-04T14:15:04;98378.75;;;10.65;100.00
64713;BME280;51140;45.340;5.980;2023-03-04T14:17:33;98350.88;;;10.67;100.00
64713;BME280;51140;45.340;5.980;2023-03-04T14:20:01;98345.78;;;10.47;100.00
64713;BME280;51140;45.340;5.980;2023-03-04T14:27:27;98336.56;;;10.40;100.00
64713;BME280;51140;45.340;5.980;2023-03-04T14:29:55;98331.47;;;10.55;100.00
64713;BME280;51140;45.340;5.980;2023-03-04T14:32:21;98332.47;;;10.53;100.00
64713;BME280;51140;45.340;5.980;2023-03-04T14:34:48;98359.09;;;10.41;100.00
64713;BME280;51140;45.340;5.980;2023-03-04T14:37:26;98365.88;;;10.26;100.00
64713;BME280;51140;45.340;5.980;2023-03-04T14:39:57;98363.13;;;10.29;100.00
64713;BME280;51140;45.340;5.980;2023-03-04T14:42:34;98335.78;;;10.38;100.00
64713;BME280;51140;45.340;5.980;2023-03-04T14:45:01;98343.75;;;10.34;100.00
64713;BME280;51140;45.340;5.980;2023-03-04T14:49:52;98366.50;;;10.31;100.00
64713;BME280;51140;45.340;5.980;2023-03-04T14:57:40;98402.16;;;10.29;100.00
64713;BME280;51140;45.340;5.980;2023-03-04T15:02:54;98371.47;;;10.35;100.00
64713;BME280;51140;45.340;5.980;2023-03-04T15:08:00;98369.94;;;10.13;100.00
64713;BME280;51140;45.340;5.980;2023-03-04T15:10:32;98342.13;;;10.13;100.00
64713;BME280;51140;45.340;5.980;2023-03-04T15:13:01;98361.50;;;10.08;100.00
64713;BME280;51140;45.340;5.980;2023-03-04T15:18:27;98359.53;;;10.67;100.00
64713;BME280;51140;45.340;5.980;2023-03-04T15:21:05;98343.59;;;10.19;100.00
64713;BME280;51140;45.340;5.980;2023-03-04T15:23:49;98345.78;;;9.90;100.00
64713;BME280;51140;45.340;5.980;2023-03-04T15:26:14;98340.53;;;9.73;100.00
64713;BME280;51140;45.340;5.980;2023-03-04T15:28:40;98324.63;;;9.79;100.00
64713;BME280;51140;45.340;5.980;2023-03-04T15:31:14;98332.41;;;9.60;100.00
64713;BME280;51140;45.340;5.980;2023-03-04T15:33:40;98328.31;;;9.55;100.00
64713;BME280;51140;45.340;5.980;2023-03-04T15:36:11;98315.59;;;9.49;100.00
64713;BME280;51140;45.340;5.980;2023-03-04T15:38:40;98324.31;;;9.48;100.00
64713;BME280;51140;45.340;5.980;2023-03-04T15:41:09;98310.75;;;9.41;100.00
64713;BME280;51140;45.340;5.980;2023-03-04T15:43:35;98312.78;;;9.34;100.00
64713;BME280;51140;45.340;5.980;2023-03-04T15:46:00;98320.50;;;9.16;100.00
64713;BME280;51140;45.340;5.980;2023-03-04T15:48:26;98304.47;;;9.06;100.00
64713;BME280;51140;45.340;5.980;2023-03-04T15:50:57;98311.13;;;8.93;100.00
64713;BME280;51140;45.340;5.980;2023-03-04T15:56:01;98324.13;;;8.51;100.00
64713;BME280;51140;45.340;5.980;2023-03-04T15:58:28;98294.84;;;8.67;100.00
64713;BME280;51140;45.340;5.980;2023-03-04T16:00:54;98300.75;;;8.71;100.00
64713;BME280;51140;45.340;5.980;2023-03-04T16:03:20;98306.72;;;8.53;100.00
64713;BME280;51140;45.340;5.980;2023-03-04T16:05:48;98313.38;;;8.38;100.00
64713;BME280;51140;45.340;5.980;2023-03-04T16:08:16;98317.22;;;8.28;100.00
64713;BME280;51140;45.340;5.980;2023-03-04T16:10:43;98299.69;;;8.33;100.00
64713;BME280;51140;45.340;5.980;2023-03-04T16:13:13;98301.56;;;8.29;100.00
64713;BME280;51140;45.340;5.980;2023-03-04T16:15:39;98308.94;;;8.18;100.00
64713;BME280;51140;45.340;5.980;2023-03-04T16:18:04;98285.13;;;8.08;100.00
64713;BME280;51140;45.340;5.980;2023-03-04T16:20:32;98288.88;;;8.01;100.00
64713;BME280;51140;45.340;5.980;2023-03-04T16:22:59;98298.72;;;7.92;100.00
64713;BME280;51140;45.340;5.980;2023-03-04T16:25:26;98292.03;;;7.86;100.00
64713;BME280;51140;45.340;5.980;2023-03-04T16:27:54;98303.00;;;7.71;100.00
64713;BME280;51140;45.340;5.980;2023-03-04T16:30:38;98289.78;;;7.53;100.00
64713;BME280;51140;45.340;5.980;2023-03-04T16:33:04;98259.16;;;7.41;100.00
64713;BME280;51140;45.340;5.980;2023-03-04T16:35:30;98254.44;;;7.29;100.00
64713;BME280;51140;45.340;5.980;2023-03-04T16:37:56;98266.50;;;7.30;100.00
64713;BME280;51140;45.340;5.980;2023-03-04T16:40:30;98238.34;;;7.21;100.00
64713;BME280;51140;45.340;5.980;2023-03-04T16:42:56;98227.16;;;7.19;100.00
64713;BME280;51140;45.340;5.980;2023-03-04T16:45:23;98232.13;;;7.25;100.00
64713;BME280;51140;45.340;5.980;2023-03-04T16:47:49;98222.56;;;7.27;100.00
64713;BME280;51140;45.340;5.980;2023-03-04T16:50:17;98201.72;;;7.30;100.00
64713;BME280;51140;45.340;5.980;2023-03-04T16:52:45;98205.25;;;7.28;100.00
64713;BME280;51140;45.340;5.980;2023-03-04T16:55:16;98196.97;;;7.18;100.00
64713;BME280;51140;45.340;5.980;2023-03-04T16:57:42;98174.50;;;6.95;100.00
64713;BME280;51140;45.340;5.980;2023-03-04T17:00:08;98180.34;;;6.77;100.00
64713;BME280;51140;45.340;5.980;2023-03-04T17:02:34;98179.25;;;6.59;100.00
64713;BME280;51140;45.340;5.980;2023-03-04T17:05:00;98170.59;;;6.35;100.00
64713;BME280;51140;45.340;5.980;2023-03-04T17:07:25;98169.50;;;6.17;100.00
64713;BME280;51140;45.340;5.980;2023-03-04T17:09:51;98157.97;;;6.01;100.00
64713;BME280;51140;45.340;5.980;2023-03-04T17:12:16;98149.81;;;5.85;100.00
64713;BME280;51140;45.340;5.980;2023-03-04T17:14:42;98138.16;;;5.74;100.00
64713;BME280;51140;45.340;5.980;2023-03-04T17:17:07;98124.63;;;5.65;100.00
64713;BME280;51140;45.340;5.980;2023-03-04T17:19:33;98123.13;;;5.58;100.00
64713;BME280;51140;45.340;5.980;2023-03-04T17:21:59;98118.25;;;5.49;100.00
64713;BME280;51140;45.340;5.980;2023-03-04T17:24:26;98116.81;;;5.41;100.00
64713;BME280;51140;45.340;5.980;2023-03-04T17:26:51;98114.44;;;5.34;100.00
64713;BME280;51140;45.340;5.980;2023-03-04T17:29:17;98111.34;;;5.23;100.00
64713;BME280;51140;45.340;5.980;2023-03-04T17:31:43;98106.28;;;5.19;100.00
64713;BME280;51140;45.340;5.980;2023-03-04T17:34:08;98101.13;;;5.19;100.00
64713;BME280;51140;45.340;5.980;2023-03-04T17:36:34;98099.44;;;5.18;100.00
64713;BME280;51140;45.340;5.980;2023-03-04T17:39:00;98101.06;;;5.22;100.00
64713;BME280;51140;45.340;5.980;2023-03-04T17:41:26;98098.31;;;5.26;100.00
64713;BME280;51140;45.340;5.980;2023-03-04T17:43:52;98096.53;;;5.28;100.00
64713;BME280;51140;45.340;5.980;2023-03-04T17:46:21;98099.97;;;5.29;100.00
64713;BME280;51140;45.340;5.980;2023-03-04T17:48:47;98091.22;;;5.33;100.00
64713;BME280;51140;45.340;5.980;2023-03-04T17:51:13;98095.44;;;5.35;100.00
64713;BME280;51140;45.340;5.980;2023-03-04T17:53:39;98095.25;;;5.42;100.00
64713;BME280;51140;45.340;5.980;2023-03-04T17:56:07;98103.53;;;5.51;100.00
64713;BME280;51140;45.340;5.980;2023-03-04T17:58:35;98110.97;;;5.62;100.00
64713;BME280;51140;45.340;5.980;2023-03-04T18:01:14;98105.84;;;5.60;100.00
64713;BME280;51140;45.340;5.980;2023-03-04T18:03:40;98092.00;;;5.63;100.00
64713;BME280;51140;45.340;5.980;2023-03-04T18:06:05;98089.41;;;5.63;100.00
64713;BME280;51140;45.340;5.980;2023-03-04T18:08:31;98094.47;;;5.66;100.00
64713;BME280;51140;45.340;5.980;2023-03-04T18:10:56;98080.97;;;5.56;100.00
64713;BME280;51140;45.340;5.980;2023-03-04T18:13:22;98083.88;;;5.47;100.00
64713;BME280;51140;45.340;5.980;2023-03-04T18:15:47;98078.06;;;5.41;100.00
64713;BME280;51140;45.340;5.980;2023-03-04T18:18:13;98075.72;;;5.33;100.00
64713;BME280;51140;45.340;5.980;2023-03-04T18:20:38;98078.16;;;5.38;100.00
64713;BME280;51140;45.340;5.980;2023-03-04T18:23:04;98083.28;;;5.39;100.00
64713;BME280;51140;45.340;5.980;2023-03-04T18:25:29;98076.69;;;5.30;100.00
64713;BME280;51140;45.340;5.980;2023-03-04T18:27:54;98078.47;;;5.28;100.00
64713;BME280;51140;45.340;5.980;2023-03-04T18:30:20;98074.25;;;5.26;100.00
64713;BME280;51140;45.340;5.980;2023-03-04T18:32:54;98069.25;;;5.20;100.00
64713;BME280;51140;45.340;5.980;2023-03-04T18:35:20;98066.59;;;5.23;100.00
64713;BME280;51140;45.340;5.980;2023-03-04T18:37:47;98065.97;;;5.15;100.00
64713;BME280;51140;45.340;5.980;2023-03-04T18:40:13;98066.25;;;5.06;100.00
64713;BME280;51140;45.340;5.980;2023-03-04T18:42:39;98058.75;;;4.98;100.00
64713;BME280;51140;45.340;5.980;2023-03-04T18:45:04;98038.28;;;4.92;100.00
64713;BME280;51140;45.340;5.980;2023-03-04T18:47:31;98049.38;;;4.95;100.00
64713;BME280;51140;45.340;5.980;2023-03-04T18:49:57;98044.19;;;4.95;100.00
64713;BME280;51140;45.340;5.980;2023-03-04T18:52:22;98039.94;;;4.94;100.00
64713;BME280;51140;45.340;5.980;2023-03-04T18:54:48;98032.53;;;4.84;100.00
64713;BME280;51140;45.340;5.980;2023-03-04T18:57:13;98031.84;;;4.77;100.00
64713;BME280;51140;45.340;5.980;2023-03-04T18:59:45;98031.03;;;4.75;100.00
64713;BME280;51140;45.340;5.980;2023-03-04T19:04:52;98018.50;;;4.63;100.00
64713;BME280;51140;45.340;5.980;2023-03-04T19:07:18;98014.63;;;4.50;100.00
64713;BME280;51140;45.340;5.980;2023-03-04T19:09:43;98014.81;;;4.44;100.00
64713;BME280;51140;45.340;5.980;2023-03-04T19:12:09;98013.88;;;4.46;100.00
64713;BME280;51140;45.340;5.980;2023-03-04T19:14:36;98012.09;;;4.48;100.00
64713;BME280;51140;45.340;5.980;2023-03-04T19:17:01;98005.34;;;4.44;100.00
64713;BME280;51140;45.340;5.980;2023-03-04T19:19:26;97999.31;;;4.44;100.00
64713;BME280;51140;45.340;5.980;2023-03-04T19:21:52;97995.88;;;4.45;100.00
64713;BME280;51140;45.340;5.980;2023-03-04T19:24:17;97994.00;;;4.50;100.00
64713;BME280;51140;45.340;5.980;2023-03-04T19:26:42;97994.69;;;4.55;100.00
64713;BME280;51140;45.340;5.980;2023-03-04T19:29:08;98000.56;;;4.60;100.00
64713;BME280;51140;45.340;5.980;2023-03-04T19:31:36;97995.69;;;4.51;100.00
64713;BME280;51140;45.340;5.980;2023-03-04T19:34:03;97991.47;;;4.48;100.00
64713;BME280;51140;45.340;5.980;2023-03-04T19:36:29;97981.13;;;4.48;100.00
64713;BME280;51140;45.340;5.980;2023-03-04T19:38:54;97985.31;;;4.52;100.00
64713;BME280;51140;45.340;5.980;2023-03-04T19:41:20;97977.56;;;4.52;100.00
64713;BME280;51140;45.340;5.980;2023-03-04T19:43:45;97974.25;;;4.49;100.00
64713;BME280;51140;45.340;5.980;2023-03-04T19:46:12;97962.34;;;4.45;100.00
64713;BME280;51140;45.340;5.980;2023-03-04T19:48:38;97957.28;;;4.40;100.00
64713;BME280;51140;45.340;5.980;2023-03-04T19:51:13;97965.00;;;4.42;100.00
64713;BME280;51140;45.340;5.980;2023-03-04T19:53:39;97956.28;;;4.46;100.00
64713;BME280;51140;45.340;5.980;2023-03-04T19:56:05;97959.59;;;4.49;100.00
64713;BME280;51140;45.340;5.980;2023-03-04T19:58:30;97952.09;;;4.42;100.00
64713;BME280;51140;45.340;5.980;2023-03-04T20:00:56;97954.84;;;4.35;100.00
64713;BME280;51140;45.340;5.980;2023-03-04T20:03:22;97954.28;;;4.26;100.00
64713;BME280;51140;45.340;5.980;2023-03-04T20:05:48;97939.78;;;4.22;100.00
64713;BME280;51140;45.340;5.980;2023-03-04T20:08:14;97951.28;;;4.12;100.00
64713;BME280;51140;45.340;5.980;2023-03-04T20:10:39;97944.69;;;4.01;100.00
64713;BME280;51140;45.340;5.980;2023-03-04T20:13:06;97942.13;;;4.00;100.00
64713;BME280;51140;45.340;5.980;2023-03-04T20:15:32;97941.34;;;3.98;100.00
64713;BME280;51140;45.340;5.980;2023-03-04T20:18:00;97931.72;;;4.04;100.00
64713;BME280;51140;45.340;5.980;2023-03-04T20:20:25;97934.22;;;4.07;100.00
64713;BME280;51140;45.340;5.980;2023-03-04T20:22:54;97940.13;;;4.11;100.00
64713;BME280;51140;45.340;5.980;2023-03-04T20:25:20;97928.91;;;4.12;100.00
64713;BME280;51140;45.340;5.980;2023-03-04T20:27:46;97934.72;;;4.19;100.00
64713;BME280;51140;45.340;5.980;2023-03-04T20:30:12;97924.28;;;4.23;100.00
64713;BME280;51140;45.340;5.980;2023-03-04T20:32:37;97918.22;;;4.24;100.00
64713;BME280;51140;45.340;5.980;2023-03-04T20:35:03;97932.91;;;4.22;100.00
64713;BME280;51140;45.340;5.980;2023-03-04T20:37:28;97927.19;;;4.13;100.00
64713;BME280;51140;45.340;5.980;2023-03-04T20:39:53;97921.75;;;3.92;100.00
64713;BME280;51140;45.340;5.980;2023-03-04T20:42:21;97926.16;;;3.89;100.00
64713;BME280;51140;45.340;5.980;2023-03-04T20:44:46;97921.75;;;3.92;100.00
64713;BME280;51140;45.340;5.980;2023-03-04T20:47:12;97925.13;;;3.94;100.00
64713;BME280;51140;45.340;5.980;2023-03-04T20:49:37;97917.94;;;4.05;100.00
64713;BME280;51140;45.340;5.980;2023-03-04T20:52:03;97917.63;;;4.16;100.00
64713;BME280;51140;45.340;5.980;2023-03-04T20:54:40;97917.44;;;4.22;100.00
64713;BME280;51140;45.340;5.980;2023-03-04T20:57:06;97915.75;;;4.21;100.00
64713;BME280;51140;45.340;5.980;2023-03-04T20:59:36;97913.13;;;4.23;100.00
64713;BME280;51140;45.340;5.980;2023-03-04T21:02:04;97912.94;;;4.29;100.00
64713;BME280;51140;45.340;5.980;2023-03-04T21:04:30;97912.22;;;4.24;100.00
64713;BME280;51140;45.340;5.980;2023-03-04T21:06:58;97903.84;;;4.17;100.00
64713;BME280;51140;45.340;5.980;2023-03-04T21:09:23;97895.31;;;4.15;100.00
64713;BME280;51140;45.340;5.980;2023-03-04T21:11:49;97901.91;;;4.24;100.00
64713;BME280;51140;45.340;5.980;2023-03-04T21:16:47;97897.31;;;4.05;100.00
64713;BME280;51140;45.340;5.980;2023-03-04T21:19:22;97895.59;;;4.06;100.00
64713;BME280;51140;45.340;5.980;2023-03-04T21:21:49;97894.06;;;3.99;100.00
64713;BME280;51140;45.340;5.980;2023-03-04T21:24:17;97888.25;;;3.92;100.00
64713;BME280;51140;45.340;5.980;2023-03-04T21:26:43;97891.47;;;3.99;100.00
64713;BME280;51140;45.340;5.980;2023-03-04T21:29:10;97897.53;;;3.98;100.00
64713;BME280;51140;45.340;5.980;2023-03-04T21:31:38;97901.78;;;3.99;100.00
64713;BME280;51140;45.340;5.980;2023-03-04T21:34:04;97902.47;;;4.05;100.00
64713;BME280;51140;45.340;5.980;2023-03-04T21:36:29;97906.88;;;4.02;100.00
64713;BME280;51140;45.340;5.980;2023-03-04T21:38:55;97893.81;;;4.08;100.00
64713;BME280;51140;45.340;5.980;2023-03-04T21:41:22;97894.75;;;4.05;100.00
64713;BME280;51140;45.340;5.980;2023-03-04T21:43:48;97884.88;;;3.90;100.00
64713;BME280;51140;45.340;5.980;2023-03-04T21:46:15;97893.09;;;3.73;100.00
64713;BME280;51140;45.340;5.980;2023-03-04T21:48:41;97890.03;;;3.59;100.00
64713;BME280;51140;45.340;5.980;2023-03-04T21:51:09;97884.97;;;3.56;100.00
64713;BME280;51140;45.340;5.980;2023-03-04T21:53:35;97887.81;;;3.47;100.00
64713;BME280;51140;45.340;5.980;2023-03-04T21:56:00;97880.66;;;3.27;100.00
64713;BME280;51140;45.340;5.980;2023-03-04T21:58:26;97882.63;;;3.49;100.00
64713;BME280;51140;45.340;5.980;2023-03-04T22:00:52;97884.69;;;3.36;100.00
64713;BME280;51140;45.340;5.980;2023-03-04T22:03:18;97892.00;;;3.19;100.00
64713;BME280;51140;45.340;5.980;2023-03-04T22:05:44;97890.41;;;3.14;100.00
64713;BME280;51140;45.340;5.980;2023-03-04T22:08:12;97888.63;;;3.17;100.00
64713;BME280;51140;45.340;5.980;2023-03-04T22:10:38;97891.56;;;3.03;100.00
64713;BME280;51140;45.340;5.980;2023-03-04T22:13:04;97891.75;;;2.95;100.00
64713;BME280;51140;45.340;5.980;2023-03-04T22:15:36;97891.84;;;2.92;100.00
64713;BME280;51140;45.340;5.980;2023-03-04T22:18:07;97889.34;;;2.89;100.00
64713;BME280;51140;45.340;5.980;2023-03-04T22:20:35;97907.94;;;2.65;100.00
64713;BME280;51140;45.340;5.980;2023-03-04T22:23:01;97916.34;;;2.71;100.00
64713;BME280;51140;45.340;5.980;2023-03-04T22:25:27;97922.56;;;2.98;100.00
64713;BME280;51140;45.340;5.980;2023-03-04T22:27:52;97920.56;;;3.09;100.00
64713;BME280;51140;45.340;5.980;2023-03-04T22:30:18;97917.59;;;3.25;100.00
64713;BME280;51140;45.340;5.980;2023-03-04T22:32:44;97912.88;;;3.40;100.00
64713;BME280;51140;45.340;5.980;2023-03-04T22:35:10;97910.09;;;3.48;100.00
64713;BME280;51140;45.340;5.980;2023-03-04T22:37:35;97908.16;;;3.56;100.00
64713;BME280;51140;45.340;5.980;2023-03-04T22:40:01;97916.22;;;3.44;100.00
64713;BME280;51140;45.340;5.980;2023-03-04T22:42:26;97915.78;;;3.59;100.00
64713;BME280;51140;45.340;5.980;2023-03-04T22:44:53;97907.41;;;3.53;100.00
64713;BME280;51140;45.340;5.980;2023-03-04T22:47:19;97915.00;;;3.57;100.00
64713;BME280;51140;45.340;5.980;2023-03-04T22:49:46;97916.94;;;3.49;100.00
64713;BME280;51140;45.340;5.980;2023-03-04T22:52:12;97917.50;;;3.60;100.00
64713;BME280;51140;45.340;5.980;2023-03-04T22:54:37;97916.94;;;3.49;100.00
64713;BME280;51140;45.340;5.980;2023-03-04T22:57:02;97915.69;;;3.64;100.00
64713;BME280;51140;45.340;5.980;2023-03-04T22:59:28;97917.56;;;3.57;100.00
64713;BME280;51140;45.340;5.980;2023-03-04T23:01:53;97920.19;;;3.87;100.00
64713;BME280;51140;45.340;5.980;2023-03-04T23:04:19;97915.16;;;3.51;100.00
64713;BME280;51140;45.340;5.980;2023-03-04T23:06:45;97913.38;;;3.53;100.00
64713;BME280;51140;45.340;5.980;2023-03-04T23:09:11;97917.06;;;3.44;100.00
64713;BME280;51140;45.340;5.980;2023-03-04T23:11:36;97924.56;;;3.21;100.00
64713;BME280;51140;45.340;5.980;2023-03-04T23:14:04;97924.16;;;3.02;100.00
64713;BME280;51140;45.340;5.980;2023-03-04T23:16:32;97925.41;;;3.20;100.00
64713;BME280;51140;45.340;5.980;2023-03-04T23:19:04;97926.78;;;3.35;100.00
64713;BME280;51140;45.340;5.980;2023-03-04T23:21:29;97934.25;;;3.44;100.00
64713;BME280;51140;45.340;5.980;2023-03-04T23:23:59;97931.63;;;3.45;100.00
64713;BME280;51140;45.340;5.980;2023-03-04T23:26:29;97935.38;;;3.34;100.00
64713;BME280;51140;45.340;5.980;2023-03-04T23:28:57;97937.63;;;3.46;100.00
64713;BME280;51140;45.340;5.980;2023-03-04T23:31:28;97918.47;;;3.56;100.00
64713;BME280;51140;45.340;5.980;2023-03-04T23:33:54;97925.78;;;3.71;100.00
64713;BME280;51140;45.340;5.980;2023-03-04T23:36:22;97927.16;;;3.52;100.00
64713;BME280;51140;45.340;5.980;2023-03-04T23:38:48;97929.25;;;3.38;100.00
64713;BME280;51140;45.340;5.980;2023-03-04T23:41:16;97935.53;;;3.28;100.00
64713;BME280;51140;45.340;5.980;2023-03-04T23:43:42;97933.13;;;3.20;100.00
64713;BME280;51140;45.340;5.980;2023-03-04T23:46:08;97935.00;;;3.15;100.00
64713;BME280;51140;45.340;5.980;2023-03-04T23:48:36;97941.06;;;3.12;100.00
64713;BME280;51140;45.340;5.980;2023-03-04T23:51:02;97936.03;;;3.08;100.00
64713;BME280;51140;45.340;5.980;2023-03-04T23:53:28;97934.50;;;3.01;100.00
64713;BME280;51140;45.340;5.980;2023-03-04T23:55:53;97941.63;;;2.91;100.00
64713;BME280;51140;45.340;5.980;2023-03-04T23:58:19;97940.91;;;2.85;100.00
